Terminal Aerodrome Forecast
Issued by NWS Lubbock, TX

Home | Current Version | Previous Version | Text Only | Print | Product List | Glossary On
Versions: 1 2 3 4 5 6 7 8 9 10 11 12 13 14 15
499
FTUS44 KLUB 272127 AAA
TAFLBB
TAF AMD
KLBB 272127Z 2721/2818 VRB06KT P6SM SCT080
      TEMPO 2722/2723 35015G30KT 6SM BLDU=

USA.gov is the U.S. government's official web portal to all federal, state and local government web resources and services.